Terminal Aerodrome Forecast
Issued by NWS

Home | Current Version | Previous Version | Text Only | Print | Product List | Glossary On
Versions: 1 2 3 4 5 6 7 8 9 10 11 12 13 14 15 16
000
FTUS42 TJSJ 201100
TAFIST
TAF
TIST 201121Z 2012/2112 06005KT P6SM VCSH SCT025 SCT035
     FM201300 12010KT P6SM SCT025
     FM202300 08007KT P6SM FEW025=

USA.gov is the U.S. government's official web portal to all federal, state and local government web resources and services.